sensor_id;sensor_type;location;lat;lon;timestamp;temperature;humidity
30889;DHT22;51092;50.874;7.024;2023-12-22T00:00:04;5.70;99.90
30889;DHT22;51092;50.874;7.024;2023-12-22T00:01:06;5.40;99.90
30889;DHT22;51092;50.874;7.024;2023-12-22T00:02:08;5.00;99.90
30889;DHT22;51092;50.874;7.024;2023-12-22T00:03:10;4.90;99.90
30889;DHT22;51092;50.874;7.024;2023-12-22T00:04:12;4.80;99.90
30889;DHT22;51092;50.874;7.024;2023-12-22T00:05:14;4.70;99.90
30889;DHT22;51092;50.874;7.024;2023-12-22T00:06:16;4.60;99.90
30889;DHT22;51092;50.874;7.024;2023-12-22T00:07:18;4.60;99.90
30889;DHT22;51092;50.874;7.024;2023-12-22T00:08:21;4.50;99.90
30889;DHT22;51092;50.874;7.024;2023-12-22T00:09:24;4.50;99.90
30889;DHT22;51092;50.874;7.024;2023-12-22T00:10:26;4.50;99.90
30889;DHT22;51092;50.874;7.024;2023-12-22T00:11:28;4.50;99.90
30889;DHT22;51092;50.874;7.024;2023-12-22T00:12:30;4.50;99.90
30889;DHT22;51092;50.874;7.024;2023-12-22T00:13:32;4.50;99.90
30889;DHT22;51092;50.874;7.024;2023-12-22T00:14:36;4.50;99.90
30889;DHT22;51092;50.874;7.024;2023-12-22T00:15:38;4.50;99.90
30889;DHT22;51092;50.874;7.024;2023-12-22T00:16:40;4.50;99.90
30889;DHT22;51092;50.874;7.024;2023-12-22T00:17:41;4.50;99.90
30889;DHT22;51092;50.874;7.024;2023-12-22T00:18:43;4.50;99.90
30889;DHT22;51092;50.874;7.024;2023-12-22T00:19:45;4.40;99.90
30889;DHT22;51092;50.874;7.024;2023-12-22T00:20:50;4.50;99.90
30889;DHT22;51092;50.874;7.024;2023-12-22T00:21:52;4.50;99.90
30889;DHT22;51092;50.874;7.024;2023-12-22T00:22:54;4.50;99.90
30889;DHT22;51092;50.874;7.024;2023-12-22T00:23:55;4.50;99.90
30889;DHT22;51092;50.874;7.024;2023-12-22T00:24:58;4.50;99.90
30889;DHT22;51092;50.874;7.024;2023-12-22T00:25:59;4.50;99.90
30889;DHT22;51092;50.874;7.024;2023-12-22T00:27:02;4.50;99.90
30889;DHT22;51092;50.874;7.024;2023-12-22T00:28:04;4.50;99.90
30889;DHT22;51092;50.874;7.024;2023-12-22T00:29:07;4.70;99.90
30889;DHT22;51092;50.874;7.024;2023-12-22T00:30:11;4.80;99.90
30889;DHT22;51092;50.874;7.024;2023-12-22T00:31:13;4.80;99.90
30889;DHT22;51092;50.874;7.024;2023-12-22T00:32:15;4.80;99.90
30889;DHT22;51092;50.874;7.024;2023-12-22T00:33:17;4.90;99.90
30889;DHT22;51092;50.874;7.024;2023-12-22T00:34:18;5.00;99.90
30889;DHT22;51092;50.874;7.024;2023-12-22T00:35:21;5.00;99.90
30889;DHT22;51092;50.874;7.024;2023-12-22T00:36:22;5.00;99.90
30889;DHT22;51092;50.874;7.024;2023-12-22T00:37:25;5.00;99.90
30889;DHT22;51092;50.874;7.024;2023-12-22T00:38:27;5.10;99.90
30889;DHT22;51092;50.874;7.024;2023-12-22T00:39:29;5.10;99.90
30889;DHT22;51092;50.874;7.024;2023-12-22T00:40:30;5.10;99.90
30889;DHT22;51092;50.874;7.024;2023-12-22T00:41:32;5.10;99.90
30889;DHT22;51092;50.874;7.024;2023-12-22T00:42:34;5.10;99.90
30889;DHT22;51092;50.874;7.024;2023-12-22T00:43:36;5.10;99.90
30889;DHT22;51092;50.874;7.024;2023-12-22T00:44:39;5.10;99.90
30889;DHT22;51092;50.874;7.024;2023-12-22T00:45:43;5.10;99.90
30889;DHT22;51092;50.874;7.024;2023-12-22T00:46:44;5.10;99.90
30889;DHT22;51092;50.874;7.024;2023-12-22T00:47:46;5.10;99.90
30889;DHT22;51092;50.874;7.024;2023-12-22T00:48:48;5.10;99.90
30889;DHT22;51092;50.874;7.024;2023-12-22T00:49:50;5.20;99.90
30889;DHT22;51092;50.874;7.024;2023-12-22T00:50:52;5.10;99.90
30889;DHT22;51092;50.874;7.024;2023-12-22T00:51:54;5.20;99.90
30889;DHT22;51092;50.874;7.024;2023-12-22T00:52:55;5.10;99.90
30889;DHT22;51092;50.874;7.024;2023-12-22T00:53:58;5.20;99.90
30889;DHT22;51092;50.874;7.024;2023-12-22T00:54:59;5.20;99.90
30889;DHT22;51092;50.874;7.024;2023-12-22T00:56:02;5.20;99.90
30889;DHT22;51092;50.874;7.024;2023-12-22T00:57:04;5.20;99.90
30889;DHT22;51092;50.874;7.024;2023-12-22T00:58:07;5.20;99.90
30889;DHT22;51092;50.874;7.024;2023-12-22T00:59:08;5.20;99.90
30889;DHT22;51092;50.874;7.024;2023-12-22T01:00:11;5.30;99.90
30889;DHT22;51092;50.874;7.024;2023-12-22T01:01:14;5.30;99.90
30889;DHT22;51092;50.874;7.024;2023-12-22T01:02:17;5.30;99.90
30889;DHT22;51092;50.874;7.024;2023-12-22T01:03:19;5.30;99.90
30889;DHT22;51092;50.874;7.024;2023-12-22T01:04:21;5.30;99.90
30889;DHT22;51092;50.874;7.024;2023-12-22T01:05:23;5.30;99.90
30889;DHT22;51092;50.874;7.024;2023-12-22T01:06:25;5.40;99.90
30889;DHT22;51092;50.874;7.024;2023-12-22T01:07:27;5.40;99.90
30889;DHT22;51092;50.874;7.024;2023-12-22T01:08:29;5.40;99.90
30889;DHT22;51092;50.874;7.024;2023-12-22T01:09:30;5.40;99.90
30889;DHT22;51092;50.874;7.024;2023-12-22T01:10:33;5.40;99.90
30889;DHT22;51092;50.874;7.024;2023-12-22T01:11:34;5.40;99.90
30889;DHT22;51092;50.874;7.024;2023-12-22T01:12:37;5.40;99.90
30889;DHT22;51092;50.874;7.024;2023-12-22T01:13:38;5.40;99.90
30889;DHT22;51092;50.874;7.024;2023-12-22T01:14:40;5.40;99.90
30889;DHT22;51092;50.874;7.024;2023-12-22T01:15:43;5.40;99.90
30889;DHT22;51092;50.874;7.024;2023-12-22T01:16:47;5.50;99.90
30889;DHT22;51092;50.874;7.024;2023-12-22T01:17:48;5.40;99.90
30889;DHT22;51092;50.874;7.024;2023-12-22T01:18:51;5.50;99.90
30889;DHT22;51092;50.874;7.024;2023-12-22T01:19:52;5.50;99.90
30889;DHT22;51092;50.874;7.024;2023-12-22T01:20:54;5.50;99.90
30889;DHT22;51092;50.874;7.024;2023-12-22T01:21:56;5.50;99.90
30889;DHT22;51092;50.874;7.024;2023-12-22T01:22:58;5.50;99.90
30889;DHT22;51092;50.874;7.024;2023-12-22T01:24:00;5.50;99.90
30889;DHT22;51092;50.874;7.024;2023-12-22T01:25:03;5.50;99.90
30889;DHT22;51092;50.874;7.024;2023-12-22T01:26:04;5.50;99.90
30889;DHT22;51092;50.874;7.024;2023-12-22T01:27:07;5.50;99.90
30889;DHT22;51092;50.874;7.024;2023-12-22T01:28:08;5.50;99.90
30889;DHT22;51092;50.874;7.024;2023-12-22T01:29:11;5.50;99.90
30889;DHT22;51092;50.874;7.024;2023-12-22T01:30:12;5.50;99.90
30889;DHT22;51092;50.874;7.024;2023-12-22T01:31:14;5.50;99.90
30889;DHT22;51092;50.874;7.024;2023-12-22T01:32:17;5.50;99.90
30889;DHT22;51092;50.874;7.024;2023-12-22T01:33:22;5.50;99.90
30889;DHT22;51092;50.874;7.024;2023-12-22T01:34:23;5.50;99.90
30889;DHT22;51092;50.874;7.024;2023-12-22T01:35:25;5.50;99.90
30889;DHT22;51092;50.874;7.024;2023-12-22T01:36:26;5.60;99.90
30889;DHT22;51092;50.874;7.024;2023-12-22T01:37:28;5.50;99.90
30889;DHT22;51092;50.874;7.024;2023-12-22T01:38:29;5.60;99.90
30889;DHT22;51092;50.874;7.024;2023-12-22T01:39:31;5.60;99.90
30889;DHT22;51092;50.874;7.024;2023-12-22T01:40:33;5.60;99.90
30889;DHT22;51092;50.874;7.024;2023-12-22T01:41:34;5.60;99.90
30889;DHT22;51092;50.874;7.024;2023-12-22T01:42:36;5.50;99.90
30889;DHT22;51092;50.874;7.024;2023-12-22T01:43:37;5.50;99.90
30889;DHT22;51092;50.874;7.024;2023-12-22T01:44:39;5.60;99.90
30889;DHT22;51092;50.874;7.024;2023-12-22T01:45:41;5.50;99.90
30889;DHT22;51092;50.874;7.024;2023-12-22T01:46:45;5.50;99.90
30889;DHT22;51092;50.874;7.024;2023-12-22T01:47:48;5.50;99.90
30889;DHT22;51092;50.874;7.024;2023-12-22T01:48:50;5.60;99.90
30889;DHT22;51092;50.874;7.024;2023-12-22T01:49:52;5.60;99.90
30889;DHT22;51092;50.874;7.024;2023-12-22T01:50:55;5.60;99.90
30889;DHT22;51092;50.874;7.024;2023-12-22T01:51:57;5.60;99.90
30889;DHT22;51092;50.874;7.024;2023-12-22T01:53:00;5.70;99.90
30889;DHT22;51092;50.874;7.024;2023-12-22T01:54:02;5.70;99.90
30889;DHT22;51092;50.874;7.024;2023-12-22T01:55:05;5.70;99.90
30889;DHT22;51092;50.874;7.024;2023-12-22T01:56:08;5.70;99.90
30889;DHT22;51092;50.874;7.024;2023-12-22T01:57:10;5.70;99.90
30889;DHT22;51092;50.874;7.024;2023-12-22T01:58:14;5.70;99.90
30889;DHT22;51092;50.874;7.024;2023-12-22T01:59:15;5.70;99.90
30889;DHT22;51092;50.874;7.024;2023-12-22T02:00:18;5.70;99.90
30889;DHT22;51092;50.874;7.024;2023-12-22T02:01:20;5.60;99.90
30889;DHT22;51092;50.874;7.024;2023-12-22T02:02:22;5.60;99.90
30889;DHT22;51092;50.874;7.024;2023-12-22T02:03:25;5.60;99.90
30889;DHT22;51092;50.874;7.024;2023-12-22T02:04:28;5.60;99.90
30889;DHT22;51092;50.874;7.024;2023-12-22T02:05:31;5.60;99.90
30889;DHT22;51092;50.874;7.024;2023-12-22T02:06:34;5.50;99.90
30889;DHT22;51092;50.874;7.024;2023-12-22T02:07:37;5.50;99.90
30889;DHT22;51092;50.874;7.024;2023-12-22T02:08:41;5.50;99.90
30889;DHT22;51092;50.874;7.024;2023-12-22T02:09:43;5.50;99.90
30889;DHT22;51092;50.874;7.024;2023-12-22T02:10:46;5.50;99.90
30889;DHT22;51092;50.874;7.024;2023-12-22T02:11:47;5.50;99.90
30889;DHT22;51092;50.874;7.024;2023-12-22T02:12:49;5.40;99.90
30889;DHT22;51092;50.874;7.024;2023-12-22T02:13:51;5.40;99.90
30889;DHT22;51092;50.874;7.024;2023-12-22T02:14:52;5.50;99.90
30889;DHT22;51092;50.874;7.024;2023-12-22T02:16:01;5.50;99.90
30889;DHT22;51092;50.874;7.024;2023-12-22T02:17:10;5.40;99.90
30889;DHT22;51092;50.874;7.024;2023-12-22T02:18:17;5.40;99.90
30889;DHT22;51092;50.874;7.024;2023-12-22T02:19:39;5.40;99.90
30889;DHT22;51092;50.874;7.024;2023-12-22T02:20:43;5.40;99.90
30889;DHT22;51092;50.874;7.024;2023-12-22T02:22:01;5.40;99.90
30889;DHT22;51092;50.874;7.024;2023-12-22T02:23:05;5.40;99.90
30889;DHT22;51092;50.874;7.024;2023-12-22T02:24:09;5.40;99.90
30889;DHT22;51092;50.874;7.024;2023-12-22T02:25:11;5.40;99.90
30889;DHT22;51092;50.874;7.024;2023-12-22T02:26:19;5.40;99.90
30889;DHT22;51092;50.874;7.024;2023-12-22T02:27:28;5.30;99.90
30889;DHT22;51092;50.874;7.024;2023-12-22T02:28:33;5.40;99.90
30889;DHT22;51092;50.874;7.024;2023-12-22T02:29:39;5.30;99.90
30889;DHT22;51092;50.874;7.024;2023-12-22T02:30:49;5.40;99.90
30889;DHT22;51092;50.874;7.024;2023-12-22T02:31:53;5.40;99.90
30889;DHT22;51092;50.874;7.024;2023-12-22T02:33:00;5.40;99.90
30889;DHT22;51092;50.874;7.024;2023-12-22T02:34:04;5.40;99.90
30889;DHT22;51092;50.874;7.024;2023-12-22T02:35:11;5.40;99.90
30889;DHT22;51092;50.874;7.024;2023-12-22T02:36:16;5.40;99.90
30889;DHT22;51092;50.874;7.024;2023-12-22T02:37:20;5.50;99.90
30889;DHT22;51092;50.874;7.024;2023-12-22T02:38:24;5.50;99.90
30889;DHT22;51092;50.874;7.024;2023-12-22T02:39:28;5.50;99.90
30889;DHT22;51092;50.874;7.024;2023-12-22T02:40:29;5.60;99.90
30889;DHT22;51092;50.874;7.024;2023-12-22T02:41:33;5.60;99.90
30889;DHT22;51092;50.874;7.024;2023-12-22T02:42:37;5.60;99.90
30889;DHT22;51092;50.874;7.024;2023-12-22T02:43:39;5.60;99.90
30889;DHT22;51092;50.874;7.024;2023-12-22T02:44:41;5.60;99.90
30889;DHT22;51092;50.874;7.024;2023-12-22T02:45:43;5.60;99.90
30889;DHT22;51092;50.874;7.024;2023-12-22T02:46:45;5.70;99.90
30889;DHT22;51092;50.874;7.024;2023-12-22T02:47:47;5.70;99.90
30889;DHT22;51092;50.874;7.024;2023-12-22T02:48:49;5.70;99.90
30889;DHT22;51092;50.874;7.024;2023-12-22T02:49:51;5.70;99.90
30889;DHT22;51092;50.874;7.024;2023-12-22T02:50:53;5.70;99.90
30889;DHT22;51092;50.874;7.024;2023-12-22T02:51:55;5.70;99.90
30889;DHT22;51092;50.874;7.024;2023-12-22T02:52:57;5.70;99.90
30889;DHT22;51092;50.874;7.024;2023-12-22T02:54:00;5.70;99.90
30889;DHT22;51092;50.874;7.024;2023-12-22T02:55:02;5.70;99.90
30889;DHT22;51092;50.874;7.024;2023-12-22T02:56:05;5.70;99.90
30889;DHT22;51092;50.874;7.024;2023-12-22T02:57:07;5.70;99.90
30889;DHT22;51092;50.874;7.024;2023-12-22T02:58:09;5.70;99.90
30889;DHT22;51092;50.874;7.024;2023-12-22T02:59:11;5.70;99.90
30889;DHT22;51092;50.874;7.024;2023-12-22T03:00:14;5.70;99.90
30889;DHT22;51092;50.874;7.024;2023-12-22T03:01:15;5.70;99.90
30889;DHT22;51092;50.874;7.024;2023-12-22T03:02:18;5.80;99.90
30889;DHT22;51092;50.874;7.024;2023-12-22T03:03:19;5.80;99.90
30889;DHT22;51092;50.874;7.024;2023-12-22T03:04:24;5.80;99.90
30889;DHT22;51092;50.874;7.024;2023-12-22T03:05:25;5.80;99.90
30889;DHT22;51092;50.874;7.024;2023-12-22T03:06:28;5.80;99.90
30889;DHT22;51092;50.874;7.024;2023-12-22T03:07:29;5.80;99.90
30889;DHT22;51092;50.874;7.024;2023-12-22T03:08:31;5.80;99.90
30889;DHT22;51092;50.874;7.024;2023-12-22T03:09:35;5.80;99.90
30889;DHT22;51092;50.874;7.024;2023-12-22T03:10:36;5.80;99.90
30889;DHT22;51092;50.874;7.024;2023-12-22T03:11:39;5.80;99.90
30889;DHT22;51092;50.874;7.024;2023-12-22T03:12:40;5.80;99.90
30889;DHT22;51092;50.874;7.024;2023-12-22T03:13:42;5.80;99.90
30889;DHT22;51092;50.874;7.024;2023-12-22T03:14:44;5.80;99.90
30889;DHT22;51092;50.874;7.024;2023-12-22T03:15:45;5.80;99.90
30889;DHT22;51092;50.874;7.024;2023-12-22T03:16:48;5.80;99.90
30889;DHT22;51092;50.874;7.024;2023-12-22T03:17:49;5.80;99.90
30889;DHT22;51092;50.874;7.024;2023-12-22T03:18:52;5.80;99.90
30889;DHT22;51092;50.874;7.024;2023-12-22T03:19:53;5.70;99.90
30889;DHT22;51092;50.874;7.024;2023-12-22T03:20:56;5.70;99.90
30889;DHT22;51092;50.874;7.024;2023-12-22T03:21:57;5.70;99.90
30889;DHT22;51092;50.874;7.024;2023-12-22T03:22:59;5.70;99.90
30889;DHT22;51092;50.874;7.024;2023-12-22T03:24:01;5.60;99.90
30889;DHT22;51092;50.874;7.024;2023-12-22T03:25:04;5.60;99.90
30889;DHT22;51092;50.874;7.024;2023-12-22T03:26:07;5.60;99.90
30889;DHT22;51092;50.874;7.024;2023-12-22T03:27:08;5.60;99.90
30889;DHT22;51092;50.874;7.024;2023-12-22T03:28:11;5.60;99.90
30889;DHT22;51092;50.874;7.024;2023-12-22T03:29:13;5.60;99.90
30889;DHT22;51092;50.874;7.024;2023-12-22T03:30:15;5.70;99.90
30889;DHT22;51092;50.874;7.024;2023-12-22T03:31:16;5.70;99.90
30889;DHT22;51092;50.874;7.024;2023-12-22T03:32:18;5.70;99.90
30889;DHT22;51092;50.874;7.024;2023-12-22T03:33:20;5.70;99.90
30889;DHT22;51092;50.874;7.024;2023-12-22T03:34:22;5.70;99.90
30889;DHT22;51092;50.874;7.024;2023-12-22T03:35:23;5.70;99.90
30889;DHT22;51092;50.874;7.024;2023-12-22T03:36:26;5.70;99.90
30889;DHT22;51092;50.874;7.024;2023-12-22T03:37:28;5.70;99.90
30889;DHT22;51092;50.874;7.024;2023-12-22T03:38:30;5.70;99.90
30889;DHT22;51092;50.874;7.024;2023-12-22T03:39:31;5.80;99.90
30889;DHT22;51092;50.874;7.024;2023-12-22T03:40:35;5.80;99.90
30889;DHT22;51092;50.874;7.024;2023-12-22T03:41:36;5.80;99.90
30889;DHT22;51092;50.874;7.024;2023-12-22T03:42:39;5.80;99.90
30889;DHT22;51092;50.874;7.024;2023-12-22T03:43:40;5.80;99.90
30889;DHT22;51092;50.874;7.024;2023-12-22T03:44:43;5.80;99.90
30889;DHT22;51092;50.874;7.024;2023-12-22T03:45:44;5.80;99.90
30889;DHT22;51092;50.874;7.024;2023-12-22T03:46:47;5.80;99.90
30889;DHT22;51092;50.874;7.024;2023-12-22T03:47:48;5.90;99.90
30889;DHT22;51092;50.874;7.024;2023-12-22T03:48:51;5.90;99.90
30889;DHT22;51092;50.874;7.024;2023-12-22T03:49:52;6.00;99.90
30889;DHT22;51092;50.874;7.024;2023-12-22T03:50:55;5.90;99.90
30889;DHT22;51092;50.874;7.024;2023-12-22T03:51:56;6.00;99.90
30889;DHT22;51092;50.874;7.024;2023-12-22T03:52:58;6.00;99.90
30889;DHT22;51092;50.874;7.024;2023-12-22T03:54:00;6.00;99.90
30889;DHT22;51092;50.874;7.024;2023-12-22T03:55:03;6.00;99.90
30889;DHT22;51092;50.874;7.024;2023-12-22T03:56:07;6.10;99.90
30889;DHT22;51092;50.874;7.024;2023-12-22T03:57:09;6.10;99.90
30889;DHT22;51092;50.874;7.024;2023-12-22T03:58:11;6.20;99.90
30889;DHT22;51092;50.874;7.024;2023-12-22T03:59:13;6.30;99.90
30889;DHT22;51092;50.874;7.024;2023-12-22T04:00:15;6.40;99.90
30889;DHT22;51092;50.874;7.024;2023-12-22T04:01:18;6.40;99.90
30889;DHT22;51092;50.874;7.024;2023-12-22T04:02:19;6.50;99.90
30889;DHT22;51092;50.874;7.024;2023-12-22T04:03:22;6.50;99.90
30889;DHT22;51092;50.874;7.024;2023-12-22T04:04:23;6.60;99.90
30889;DHT22;51092;50.874;7.024;2023-12-22T04:05:28;6.60;99.90
30889;DHT22;51092;50.874;7.024;2023-12-22T04:06:30;6.70;99.90
30889;DHT22;51092;50.874;7.024;2023-12-22T04:07:32;6.70;99.90
30889;DHT22;51092;50.874;7.024;2023-12-22T04:08:33;6.70;99.90
30889;DHT22;51092;50.874;7.024;2023-12-22T04:09:36;6.70;99.90
30889;DHT22;51092;50.874;7.024;2023-12-22T04:10:38;6.70;99.90
30889;DHT22;51092;50.874;7.024;2023-12-22T04:11:42;6.70;99.90
30889;DHT22;51092;50.874;7.024;2023-12-22T04:12:43;6.70;99.90
30889;DHT22;51092;50.874;7.024;2023-12-22T04:13:45;6.70;99.90
30889;DHT22;51092;50.874;7.024;2023-12-22T04:14:47;6.80;99.90
30889;DHT22;51092;50.874;7.024;2023-12-22T04:15:50;6.80;99.90
30889;DHT22;51092;50.874;7.024;2023-12-22T04:16:52;6.80;99.90
30889;DHT22;51092;50.874;7.024;2023-12-22T04:17:54;6.80;99.90
30889;DHT22;51092;50.874;7.024;2023-12-22T04:18:56;6.70;99.90
30889;DHT22;51092;50.874;7.024;2023-12-22T04:19:57;6.70;99.90
30889;DHT22;51092;50.874;7.024;2023-12-22T04:21:00;6.60;99.90
30889;DHT22;51092;50.874;7.024;2023-12-22T04:22:01;6.60;99.90
30889;DHT22;51092;50.874;7.024;2023-12-22T04:23:04;6.70;99.90
30889;DHT22;51092;50.874;7.024;2023-12-22T04:24:06;6.60;99.90
30889;DHT22;51092;50.874;7.024;2023-12-22T04:25:08;6.60;99.90
30889;DHT22;51092;50.874;7.024;2023-12-22T04:26:10;6.60;99.90
30889;DHT22;51092;50.874;7.024;2023-12-22T04:27:14;6.60;99.90
30889;DHT22;51092;50.874;7.024;2023-12-22T04:28:15;6.70;99.90
30889;DHT22;51092;50.874;7.024;2023-12-22T04:29:17;6.70;99.90
30889;DHT22;51092;50.874;7.024;2023-12-22T04:30:19;6.80;99.90
30889;DHT22;51092;50.874;7.024;2023-12-22T04:31:21;6.80;99.90
30889;DHT22;51092;50.874;7.024;2023-12-22T04:32:23;6.80;99.90
30889;DHT22;51092;50.874;7.024;2023-12-22T04:33:24;6.90;99.90
30889;DHT22;51092;50.874;7.024;2023-12-22T04:34:27;6.90;99.90
30889;DHT22;51092;50.874;7.024;2023-12-22T04:35:29;6.90;99.90
30889;DHT22;51092;50.874;7.024;2023-12-22T04:36:31;6.90;99.90
30889;DHT22;51092;50.874;7.024;2023-12-22T04:37:34;6.90;99.90
30889;DHT22;51092;50.874;7.024;2023-12-22T04:38:35;6.90;99.90
30889;DHT22;51092;50.874;7.024;2023-12-22T04:39:36;6.90;99.90
30889;DHT22;51092;50.874;7.024;2023-12-22T04:40:39;6.90;99.90
30889;DHT22;51092;50.874;7.024;2023-12-22T04:41:40;6.80;99.90
30889;DHT22;51092;50.874;7.024;2023-12-22T04:42:44;6.90;99.90
30889;DHT22;51092;50.874;7.024;2023-12-22T04:43:45;6.90;99.90
30889;DHT22;51092;50.874;7.024;2023-12-22T04:44:48;6.90;99.90
30889;DHT22;51092;50.874;7.024;2023-12-22T04:45:49;6.90;99.90
30889;DHT22;51092;50.874;7.024;2023-12-22T04:46:52;6.90;99.90
30889;DHT22;51092;50.874;7.024;2023-12-22T04:47:53;6.90;99.90
30889;DHT22;51092;50.874;7.024;2023-12-22T04:48:55;6.90;99.90
30889;DHT22;51092;50.874;7.024;2023-12-22T04:49:57;6.90;99.90
30889;DHT22;51092;50.874;7.024;2023-12-22T04:50:59;6.90;99.90
30889;DHT22;51092;50.874;7.024;2023-12-22T04:51:59;6.90;99.90
30889;DHT22;51092;50.874;7.024;2023-12-22T04:53:01;6.90;99.90
30889;DHT22;51092;50.874;7.024;2023-12-22T04:54:02;6.90;99.90
30889;DHT22;51092;50.874;7.024;2023-12-22T04:55:05;6.90;99.90
30889;DHT22;51092;50.874;7.024;2023-12-22T04:56:07;6.90;99.90
30889;DHT22;51092;50.874;7.024;2023-12-22T04:57:09;6.90;99.90
30889;DHT22;51092;50.874;7.024;2023-12-22T04:58:12;6.90;99.90
30889;DHT22;51092;50.874;7.024;2023-12-22T04:59:14;7.00;99.90
30889;DHT22;51092;50.874;7.024;2023-12-22T05:00:16;7.00;99.90
30889;DHT22;51092;50.874;7.024;2023-12-22T05:01:18;7.00;99.90
30889;DHT22;51092;50.874;7.024;2023-12-22T05:02:20;7.00;99.90
30889;DHT22;51092;50.874;7.024;2023-12-22T05:03:22;7.00;99.90
30889;DHT22;51092;50.874;7.024;2023-12-22T05:04:24;7.00;99.90
30889;DHT22;51092;50.874;7.024;2023-12-22T05:05:25;7.00;99.90
30889;DHT22;51092;50.874;7.024;2023-12-22T05:06:27;7.10;99.90
30889;DHT22;51092;50.874;7.024;2023-12-22T05:07:30;7.10;99.90
30889;DHT22;51092;50.874;7.024;2023-12-22T05:08:31;7.10;99.90
30889;DHT22;51092;50.874;7.024;2023-12-22T05:09:34;7.10;99.90
30889;DHT22;51092;50.874;7.024;2023-12-22T05:10:35;7.10;99.90
30889;DHT22;51092;50.874;7.024;2023-12-22T05:11:38;7.10;99.90
30889;DHT22;51092;50.874;7.024;2023-12-22T05:12:39;7.20;99.90
30889;DHT22;51092;50.874;7.024;2023-12-22T05:13:43;7.10;99.90
30889;DHT22;51092;50.874;7.024;2023-12-22T05:14:46;7.20;99.90
30889;DHT22;51092;50.874;7.024;2023-12-22T05:15:48;7.20;99.90
30889;DHT22;51092;50.874;7.024;2023-12-22T05:16:49;7.20;99.90
30889;DHT22;51092;50.874;7.024;2023-12-22T05:17:56;7.20;99.90
30889;DHT22;51092;50.874;7.024;2023-12-22T05:18:57;7.30;99.90
30889;DHT22;51092;50.874;7.024;2023-12-22T05:20:00;7.30;99.90
30889;DHT22;51092;50.874;7.024;2023-12-22T05:21:01;7.30;99.90
30889;DHT22;51092;50.874;7.024;2023-12-22T05:22:04;7.40;99.90
30889;DHT22;51092;50.874;7.024;2023-12-22T05:23:05;7.50;99.90
30889;DHT22;51092;50.874;7.024;2023-12-22T05:24:07;7.60;99.90
30889;DHT22;51092;50.874;7.024;2023-12-22T05:25:08;7.70;99.90
30889;DHT22;51092;50.874;7.024;2023-12-22T05:26:16;7.70;99.90
30889;DHT22;51092;50.874;7.024;2023-12-22T05:27:22;7.80;99.90
30889;DHT22;51092;50.874;7.024;2023-12-22T05:28:24;7.80;99.90
30889;DHT22;51092;50.874;7.024;2023-12-22T05:29:27;7.80;99.90
30889;DHT22;51092;50.874;7.024;2023-12-22T05:30:30;7.80;99.90
30889;DHT22;51092;50.874;7.024;2023-12-22T05:31:31;7.80;99.90
30889;DHT22;51092;50.874;7.024;2023-12-22T05:32:35;7.80;99.90
30889;DHT22;51092;50.874;7.024;2023-12-22T05:33:37;7.80;99.90
30889;DHT22;51092;50.874;7.024;2023-12-22T05:34:39;7.80;99.90
30889;DHT22;51092;50.874;7.024;2023-12-22T05:35:40;7.90;99.90
30889;DHT22;51092;50.874;7.024;2023-12-22T05:36:43;8.00;99.90
30889;DHT22;51092;50.874;7.024;2023-12-22T05:37:44;8.00;99.90
30889;DHT22;51092;50.874;7.024;2023-12-22T05:38:47;8.00;99.90
30889;DHT22;51092;50.874;7.024;2023-12-22T05:39:49;8.00;99.90
30889;DHT22;51092;50.874;7.024;2023-12-22T05:40:51;8.00;99.90
30889;DHT22;51092;50.874;7.024;2023-12-22T05:41:52;8.10;99.90
30889;DHT22;51092;50.874;7.024;2023-12-22T05:42:55;8.10;99.90
30889;DHT22;51092;50.874;7.024;2023-12-22T05:43:56;8.10;99.90
30889;DHT22;51092;50.874;7.024;2023-12-22T05:45:00;8.10;99.90
30889;DHT22;51092;50.874;7.024;2023-12-22T05:46:02;8.10;99.90
30889;DHT22;51092;50.874;7.024;2023-12-22T05:47:04;8.20;99.90
30889;DHT22;51092;50.874;7.024;2023-12-22T05:48:06;8.20;99.90
30889;DHT22;51092;50.874;7.024;2023-12-22T05:49:09;8.20;99.90
30889;DHT22;51092;50.874;7.024;2023-12-22T05:50:11;8.20;99.60
30889;DHT22;51092;50.874;7.024;2023-12-22T05:51:13;8.20;99.50
30889;DHT22;51092;50.874;7.024;2023-12-22T05:52:14;8.30;97.20
30889;DHT22;51092;50.874;7.024;2023-12-22T05:53:17;8.30;97.20
30889;DHT22;51092;50.874;7.024;2023-12-22T05:54:18;8.30;96.80
30889;DHT22;51092;50.874;7.024;2023-12-22T05:55:21;8.40;96.00
30889;DHT22;51092;50.874;7.024;2023-12-22T05:56:23;8.40;95.90
30889;DHT22;51092;50.874;7.024;2023-12-22T05:57:25;8.40;95.50
30889;DHT22;51092;50.874;7.024;2023-12-22T05:58:27;8.30;96.30
30889;DHT22;51092;50.874;7.024;2023-12-22T05:59:28;8.30;96.50
30889;DHT22;51092;50.874;7.024;2023-12-22T06:00:34;8.30;96.20
30889;DHT22;51092;50.874;7.024;2023-12-22T06:01:36;8.40;96.00
30889;DHT22;51092;50.874;7.024;2023-12-22T06:02:38;8.30;96.30
30889;DHT22;51092;50.874;7.024;2023-12-22T06:03:40;8.30;95.90
30889;DHT22;51092;50.874;7.024;2023-12-22T06:04:42;8.30;95.50
30889;DHT22;51092;50.874;7.024;2023-12-22T06:05:47;8.40;95.50
30889;DHT22;51092;50.874;7.024;2023-12-22T06:06:49;8.40;95.20
30889;DHT22;51092;50.874;7.024;2023-12-22T06:07:51;8.40;95.20
30889;DHT22;51092;50.874;7.024;2023-12-22T06:08:53;8.40;94.90
30889;DHT22;51092;50.874;7.024;2023-12-22T06:09:55;8.40;95.20
30889;DHT22;51092;50.874;7.024;2023-12-22T06:10:56;8.30;95.80
30889;DHT22;51092;50.874;7.024;2023-12-22T06:11:59;8.30;95.30
30889;DHT22;51092;50.874;7.024;2023-12-22T06:13:03;8.30;95.50
30889;DHT22;51092;50.874;7.024;2023-12-22T06:14:06;8.30;96.00
30889;DHT22;51092;50.874;7.024;2023-12-22T06:15:08;8.30;95.70
30889;DHT22;51092;50.874;7.024;2023-12-22T06:16:13;8.40;95.30
30889;DHT22;51092;50.874;7.024;2023-12-22T06:17:15;8.30;95.30
30889;DHT22;51092;50.874;7.024;2023-12-22T06:18:17;8.40;95.10
30889;DHT22;51092;50.874;7.024;2023-12-22T06:19:17;8.40;94.80
30889;DHT22;51092;50.874;7.024;2023-12-22T06:20:19;8.40;94.40
30889;DHT22;51092;50.874;7.024;2023-12-22T06:21:21;8.40;94.90
30889;DHT22;51092;50.874;7.024;2023-12-22T06:22:24;8.30;95.00
30889;DHT22;51092;50.874;7.024;2023-12-22T06:23:26;8.40;94.40
30889;DHT22;51092;50.874;7.024;2023-12-22T06:24:28;8.40;95.00
30889;DHT22;51092;50.874;7.024;2023-12-22T06:25:30;8.40;94.40
30889;DHT22;51092;50.874;7.024;2023-12-22T06:26:32;8.40;94.30
30889;DHT22;51092;50.874;7.024;2023-12-22T06:27:34;8.40;94.70
30889;DHT22;51092;50.874;7.024;2023-12-22T06:28:38;8.40;94.70
30889;DHT22;51092;50.874;7.024;2023-12-22T06:29:41;8.40;94.40
30889;DHT22;51092;50.874;7.024;2023-12-22T06:30:42;8.30;94.80
30889;DHT22;51092;50.874;7.024;2023-12-22T06:31:45;8.40;94.10
30889;DHT22;51092;50.874;7.024;2023-12-22T06:32:51;8.40;94.10
30889;DHT22;51092;50.874;7.024;2023-12-22T06:33:53;8.40;94.50
30889;DHT22;51092;50.874;7.024;2023-12-22T06:34:55;8.40;94.80
30889;DHT22;51092;50.874;7.024;2023-12-22T06:35:57;8.40;94.20
30889;DHT22;51092;50.874;7.024;2023-12-22T06:36:59;8.50;94.00
30889;DHT22;51092;50.874;7.024;2023-12-22T06:38:00;8.50;94.10
30889;DHT22;51092;50.874;7.024;2023-12-22T06:39:05;8.40;94.50
30889;DHT22;51092;50.874;7.024;2023-12-22T06:40:07;8.40;94.60